createdAt,value
2019-06-26T00:01:11.199Z,13.27
2019-06-26T00:03:39.816Z,13.50
2019-06-26T00:06:08.546Z,11.97
2019-06-26T00:08:37.104Z,12.80
2019-06-26T00:11:05.743Z,14.30
2019-06-26T00:13:34.428Z,14.53
2019-06-26T00:16:02.996Z,14.83
2019-06-26T00:18:31.594Z,13.80
2019-06-26T00:21:00.168Z,14.60
2019-06-26T00:23:28.783Z,15.47
2019-06-26T00:25:57.336Z,15.77
2019-06-26T00:28:25.911Z,14.87
2019-06-26T00:30:54.463Z,15.63
2019-06-26T00:33:23.039Z,15.60
2019-06-26T00:35:52.067Z,15.67
2019-06-26T00:38:20.674Z,16.27
2019-06-26T00:40:49.263Z,15.73
2019-06-26T00:43:17.843Z,16.20
2019-06-26T00:45:46.400Z,15.10
2019-06-26T00:48:15.291Z,15.37
2019-06-26T00:50:43.914Z,15.93
2019-06-26T00:53:12.562Z,15.77
2019-06-26T00:55:41.143Z,16.07
2019-06-26T00:58:09.709Z,14.30
2019-06-26T01:00:44.328Z,15.13
2019-06-26T01:03:12.873Z,15.50
2019-06-26T01:05:41.449Z,16.40
2019-06-26T01:08:10.072Z,17.57
2019-06-26T01:10:38.667Z,16.93
2019-06-26T01:13:07.222Z,16.20
2019-06-26T01:15:35.885Z,16.60
2019-06-26T01:18:04.535Z,16.67
2019-06-26T01:20:33.207Z,18.47
2019-06-26T01:23:01.950Z,18.07
2019-06-26T01:25:30.521Z,18.70
2019-06-26T01:27:59.093Z,19.10
2019-06-26T01:30:28.489Z,19.60
2019-06-26T01:32:57.075Z,22.97
2019-06-26T01:35:25.619Z,21.00
2019-06-26T01:37:54.178Z,21.87
2019-06-26T01:40:23.761Z,19.43
2019-06-26T01:42:52.311Z,20.30
2019-06-26T01:45:20.970Z,21.30
2019-06-26T01:47:49.560Z,20.83
2019-06-26T01:50:18.394Z,20.53
2019-06-26T01:52:46.882Z,20.80
2019-06-26T01:55:15.591Z,20.93
2019-06-26T01:57:44.140Z,19.13
2019-06-26T02:00:12.970Z,22.90
2019-06-26T02:02:41.506Z,22.70
2019-06-26T02:05:10.417Z,21.20
2019-06-26T02:07:38.949Z,22.57
2019-06-26T02:10:09.135Z,20.20
2019-06-26T02:12:37.757Z,20.00
2019-06-26T02:15:07.176Z,19.37
2019-06-26T02:17:35.747Z,20.20
2019-06-26T02:20:06.806Z,19.40
2019-06-26T02:22:35.382Z,18.50
2019-06-26T02:25:05.294Z,18.23
2019-06-26T02:27:33.991Z,18.70
2019-06-26T02:30:02.570Z,18.50
2019-06-26T02:32:31.139Z,17.00
2019-06-26T02:34:59.719Z,18.07
2019-06-26T02:37:28.276Z,18.33
2019-06-26T02:39:56.869Z,17.20
2019-06-26T02:42:25.533Z,18.93
2019-06-26T02:44:54.678Z,18.20
2019-06-26T02:47:23.392Z,16.93
2019-06-26T02:49:52.826Z,15.57
2019-06-26T02:52:21.445Z,15.47
2019-06-26T02:54:50.020Z,15.40
2019-06-26T02:57:18.592Z,15.43
2019-06-26T02:59:47.179Z,14.93
2019-06-26T03:02:15.822Z,15.50
2019-06-26T03:04:44.414Z,14.07
2019-06-26T03:07:13.091Z,15.23
2019-06-26T03:09:41.700Z,15.47
2019-06-26T03:12:10.339Z,16.60
2019-06-26T03:14:38.921Z,15.10
2019-06-26T03:17:07.500Z,16.00
2019-06-26T03:19:36.080Z,15.10
2019-06-26T03:22:04.640Z,15.40
2019-06-26T03:24:33.235Z,15.97
2019-06-26T03:27:01.771Z,15.70
2019-06-26T03:29:30.372Z,14.93
2019-06-26T03:31:58.913Z,16.87
2019-06-26T03:34:27.552Z,16.77
2019-06-26T03:36:56.100Z,16.33
2019-06-26T03:39:24.704Z,15.67
2019-06-26T03:41:53.313Z,16.90
2019-06-26T03:44:21.897Z,16.00
2019-06-26T03:46:50.528Z,15.37
2019-06-26T03:49:19.171Z,15.43
2019-06-26T03:51:47.813Z,15.43
2019-06-26T03:54:16.390Z,13.73
2019-06-26T03:56:44.958Z,13.43
2019-06-26T03:59:13.582Z,12.50
2019-06-26T04:01:42.140Z,13.33
2019-06-26T04:04:10.745Z,11.07
2019-06-26T04:06:39.325Z,11.17
2019-06-26T04:09:07.910Z,10.27
2019-06-26T04:11:36.493Z,10.50
2019-06-26T04:14:05.534Z,11.10
2019-06-26T04:16:34.064Z,10.17
2019-06-26T04:19:02.678Z,9.40
2019-06-26T04:21:31.222Z,9.50
2019-06-26T04:23:59.813Z,10.50
2019-06-26T04:26:28.385Z,9.90
2019-06-26T04:28:56.919Z,9.53
2019-06-26T04:31:25.497Z,10.00
2019-06-26T04:33:54.118Z,9.07
2019-06-26T04:36:22.757Z,9.43
2019-06-26T04:38:51.315Z,8.97
2019-06-26T04:41:19.903Z,9.60
2019-06-26T04:43:48.482Z,9.67
2019-06-26T04:46:17.028Z,9.70
2019-06-26T04:48:45.582Z,9.50
2019-06-26T04:51:14.133Z,9.97
2019-06-26T04:53:42.722Z,9.53
2019-06-26T04:56:11.336Z,9.10
2019-06-26T04:58:40.005Z,9.00
2019-06-26T05:01:08.732Z,8.80
2019-06-26T05:03:37.356Z,9.40
2019-06-26T05:06:06.004Z,9.50
2019-06-26T05:08:34.656Z,8.80
2019-06-26T05:11:03.413Z,8.47
2019-06-26T05:13:32.091Z,8.80
2019-06-26T05:16:13.733Z,8.30
2019-06-26T05:18:31.007Z,8.97
2019-06-26T05:20:59.580Z,8.63
2019-06-26T05:23:28.142Z,8.67
2019-06-26T05:25:56.820Z,8.60
2019-06-26T05:28:25.502Z,9.57
2019-06-26T05:30:54.121Z,8.90
2019-06-26T05:33:22.727Z,7.80
2019-06-26T05:35:51.369Z,7.50
2019-06-26T05:38:20.114Z,8.87
2019-06-26T05:40:48.859Z,7.80
2019-06-26T05:43:17.449Z,8.53
2019-06-26T05:45:46.034Z,8.40
2019-06-26T05:48:14.624Z,9.80
2019-06-26T05:50:44.088Z,9.00
2019-06-26T05:53:12.639Z,9.20
2019-06-26T05:55:41.895Z,10.03
2019-06-26T05:58:10.486Z,8.17
2019-06-26T06:00:39.021Z,9.17
2019-06-26T06:03:07.704Z,9.33
2019-06-26T06:05:36.458Z,8.47
2019-06-26T06:08:05.099Z,8.67
2019-06-26T06:10:33.753Z,8.53
2019-06-26T06:13:02.317Z,8.90
2019-06-26T06:15:30.939Z,9.57
2019-06-26T06:17:59.592Z,8.57
2019-06-26T06:20:39.261Z,8.83
2019-06-26T06:23:07.914Z,7.90
2019-06-26T06:25:36.522Z,9.50
2019-06-26T06:28:05.111Z,8.70
2019-06-26T06:30:33.793Z,8.60
2019-06-26T06:33:02.941Z,8.03
2019-06-26T06:35:31.672Z,8.67
2019-06-26T06:38:00.271Z,8.70
2019-06-26T06:40:29.019Z,8.00
2019-06-26T06:42:57.608Z,8.60
2019-06-26T06:45:26.517Z,7.87
2019-06-26T06:47:55.193Z,8.70
2019-06-26T06:50:23.807Z,9.20
2019-06-26T06:52:52.364Z,8.17
2019-06-26T06:55:21.545Z,8.90
2019-06-26T06:57:50.348Z,8.80
2019-06-26T07:00:19.589Z,8.83
2019-06-26T07:02:48.187Z,8.03
2019-06-26T07:05:16.954Z,7.50
2019-06-26T07:07:45.577Z,8.07
2019-06-26T07:10:14.274Z,9.00
2019-06-26T07:12:42.833Z,7.70
2019-06-26T07:15:11.987Z,8.47
2019-06-26T07:17:40.554Z,8.20
2019-06-26T07:20:09.423Z,8.80
2019-06-26T07:22:38.104Z,8.70
2019-06-26T07:25:07.106Z,8.77
2019-06-26T07:27:36.617Z,8.70
2019-06-26T07:30:09.244Z,8.33
2019-06-26T07:32:37.888Z,8.07
2019-06-26T07:35:07.330Z,8.53
2019-06-26T07:37:35.894Z,7.83
2019-06-26T07:40:06.535Z,8.40
2019-06-26T07:42:35.088Z,7.17
2019-06-26T07:45:05.015Z,8.40
2019-06-26T07:47:43.053Z,9.60
2019-06-26T07:50:04.635Z,9.10
2019-06-26T07:52:33.302Z,8.17
2019-06-26T07:55:01.903Z,7.50
2019-06-26T07:57:30.471Z,7.63
2019-06-26T07:59:59.073Z,8.13
2019-06-26T08:02:27.737Z,8.53
2019-06-26T08:04:56.944Z,8.83
2019-06-26T08:07:25.569Z,8.90
2019-06-26T08:09:54.181Z,8.73
2019-06-26T08:12:22.725Z,8.03
2019-06-26T08:14:51.344Z,8.33
2019-06-26T08:17:19.903Z,8.73
2019-06-26T08:19:48.493Z,8.60
2019-06-26T08:22:17.156Z,7.60
2019-06-26T08:24:45.790Z,7.93
2019-06-26T08:27:14.362Z,7.50
2019-06-26T08:29:43.034Z,7.70
2019-06-26T08:32:11.617Z,7.47
2019-06-26T08:34:40.223Z,8.70
2019-06-26T08:37:08.814Z,7.00
2019-06-26T08:39:37.472Z,7.13
2019-06-26T08:42:06.067Z,7.77
2019-06-26T08:44:34.662Z,8.53
2019-06-26T08:47:03.194Z,7.30
2019-06-26T08:49:31.923Z,9.87
2019-06-26T08:52:00.722Z,7.20
2019-06-26T08:54:29.406Z,8.90
2019-06-26T08:56:58.077Z,8.30
2019-06-26T08:59:26.702Z,7.97
2019-06-26T09:01:55.334Z,8.00
2019-06-26T09:04:24.015Z,8.07
2019-06-26T09:06:52.561Z,8.10
2019-06-26T09:09:21.161Z,8.20
2019-06-26T09:11:49.778Z,7.50
2019-06-26T09:14:18.404Z,8.07
2019-06-26T09:16:47.098Z,8.37
2019-06-26T09:19:15.955Z,7.97
2019-06-26T09:21:44.568Z,9.13
2019-06-26T09:24:13.191Z,8.00
2019-06-26T09:26:41.783Z,8.47
2019-06-26T09:29:10.421Z,8.10
2019-06-26T09:31:39.012Z,8.17
2019-06-26T09:34:07.718Z,9.03
2019-06-26T09:36:36.399Z,8.53
2019-06-26T09:39:07.653Z,8.60
2019-06-26T09:41:36.382Z,8.60
2019-06-26T09:44:05.145Z,11.00
2019-06-26T09:46:33.787Z,8.90
2019-06-26T09:49:02.430Z,8.30
2019-06-26T09:51:31.121Z,8.80
2019-06-26T09:53:59.691Z,8.87
2019-06-26T09:56:28.241Z,7.87
2019-06-26T09:58:56.860Z,9.50
2019-06-26T10:01:25.517Z,9.10
2019-06-26T10:03:54.158Z,10.07
2019-06-26T10:06:22.798Z,8.30
2019-06-26T10:08:54.126Z,8.00
2019-06-26T10:11:21.651Z,7.87
2019-06-26T10:13:50.329Z,8.47
2019-06-26T10:16:18.887Z,8.30
2019-06-26T10:18:47.541Z,8.97
2019-06-26T10:21:16.150Z,8.43
2019-06-26T10:23:44.809Z,9.13
2019-06-26T10:26:13.468Z,8.97
2019-06-26T10:28:42.022Z,8.90
2019-06-26T10:31:10.697Z,9.00
2019-06-26T10:33:39.281Z,9.63
2019-06-26T10:36:07.877Z,8.30
2019-06-26T10:38:36.497Z,9.10
2019-06-26T10:41:05.316Z,8.37
2019-06-26T10:43:33.928Z,8.37
2019-06-26T10:46:02.598Z,8.20
2019-06-26T10:48:31.183Z,9.97
2019-06-26T10:50:59.835Z,8.60
2019-06-26T10:53:28.466Z,7.80
2019-06-26T10:55:57.041Z,9.07
2019-06-26T10:58:25.683Z,7.90
2019-06-26T11:00:54.338Z,8.50
2019-06-26T11:03:23.035Z,8.60
2019-06-26T11:05:51.588Z,9.03
2019-06-26T11:08:20.194Z,8.27
2019-06-26T11:10:48.787Z,8.30
2019-06-26T11:13:17.424Z,8.50
2019-06-26T11:15:46.021Z,7.10
2019-06-26T11:18:14.593Z,9.40
2019-06-26T11:20:43.299Z,8.33
2019-06-26T11:23:11.850Z,8.80
2019-06-26T11:25:44.055Z,7.17
2019-06-26T11:28:10.738Z,8.30
2019-06-26T11:30:39.343Z,9.27
2019-06-26T11:33:07.915Z,7.53
2019-06-26T11:35:36.493Z,8.90
2019-06-26T11:38:05.215Z,8.53
2019-06-26T11:40:33.865Z,9.10
2019-06-26T11:43:02.417Z,8.60
2019-06-26T11:45:31.120Z,9.10
2019-06-26T11:47:59.692Z,9.10
2019-06-26T11:50:28.471Z,7.40
2019-06-26T11:52:57.071Z,8.10
2019-06-26T11:55:25.778Z,9.77
2019-06-26T11:57:54.386Z,9.53
2019-06-26T12:00:23.931Z,9.60
2019-06-26T12:02:52.836Z,9.00
2019-06-26T12:05:21.963Z,8.80
2019-06-26T12:07:50.649Z,8.67
2019-06-26T12:10:20.567Z,9.60
2019-06-26T12:12:49.137Z,8.73
2019-06-26T12:15:19.123Z,8.50
2019-06-26T12:17:47.698Z,8.93
2019-06-26T12:20:19.089Z,8.83
2019-06-26T12:22:46.863Z,8.80
2019-06-26T12:25:15.516Z,9.33
2019-06-26T12:27:44.088Z,9.00
2019-06-26T12:30:12.922Z,9.50
2019-06-26T12:32:44.222Z,9.67
2019-06-26T12:35:11.825Z,8.90
2019-06-26T12:37:40.493Z,9.00
2019-06-26T12:40:09.904Z,9.10
2019-06-26T12:42:38.592Z,8.63
2019-06-26T12:45:08.537Z,9.30
2019-06-26T12:47:37.116Z,9.97
2019-06-26T12:50:07.643Z,9.57
2019-06-26T12:52:36.292Z,8.47
2019-06-26T12:55:05.916Z,10.80
2019-06-26T12:57:34.833Z,11.17
2019-06-26T13:00:05.265Z,9.30
2019-06-26T13:02:33.854Z,8.70
2019-06-26T13:05:02.606Z,9.33
2019-06-26T13:07:31.337Z,9.57
2019-06-26T13:09:59.931Z,8.90
2019-06-26T13:12:28.645Z,8.20
2019-06-26T13:14:57.254Z,9.23
2019-06-26T13:17:25.963Z,8.10
2019-06-26T13:19:54.613Z,9.30
2019-06-26T13:22:23.291Z,9.30
2019-06-26T13:24:51.877Z,9.60
2019-06-26T13:27:20.460Z,9.00
2019-06-26T13:29:49.027Z,9.93
2019-06-26T13:32:17.607Z,10.13
2019-06-26T13:34:46.200Z,10.20
2019-06-26T13:37:14.796Z,10.63
2019-06-26T13:39:43.341Z,8.63
2019-06-26T13:42:11.934Z,9.30
2019-06-26T13:44:40.657Z,10.00
2019-06-26T13:47:09.335Z,9.60
2019-06-26T13:49:37.902Z,9.57
2019-06-26T13:52:06.692Z,11.50
2019-06-26T13:54:35.265Z,9.23
2019-06-26T13:57:03.944Z,9.20
2019-06-26T13:59:32.489Z,8.57
2019-06-26T14:02:00.995Z,9.40
2019-06-26T14:04:29.579Z,10.60
2019-06-26T14:06:58.173Z,9.53
2019-06-26T14:09:27.404Z,11.20
2019-06-26T14:11:55.975Z,10.57
2019-06-26T14:14:40.808Z,9.30
2019-06-26T14:16:54.818Z,10.20
2019-06-26T14:19:26.631Z,10.67
2019-06-26T14:21:53.651Z,9.70
2019-06-26T14:24:22.218Z,11.17
2019-06-26T14:26:50.885Z,10.43
2019-06-26T14:29:21.259Z,10.30
2019-06-26T14:31:49.647Z,9.57
2019-06-26T14:34:18.298Z,10.10
2019-06-26T14:36:46.966Z,9.77
2019-06-26T14:39:15.526Z,9.40
2019-06-26T14:41:44.090Z,9.43
2019-06-26T14:44:13.638Z,9.80
2019-06-26T14:46:42.242Z,8.87
2019-06-26T14:49:10.903Z,8.57
2019-06-26T14:51:46.748Z,9.20
2019-06-26T14:54:09.766Z,9.30
2019-06-26T14:56:38.306Z,8.93
2019-06-26T14:59:07.352Z,9.07
2019-06-26T15:01:35.919Z,8.27
2019-06-26T15:04:04.645Z,8.37
2019-06-26T15:06:33.274Z,9.17
2019-06-26T15:09:01.841Z,9.00
2019-06-26T15:11:30.425Z,10.33
2019-06-26T15:13:59.086Z,8.60
2019-06-26T15:16:30.389Z,9.33
2019-06-26T15:18:57.945Z,8.47
2019-06-26T15:21:26.531Z,9.13
2019-06-26T15:23:55.185Z,9.40
2019-06-26T15:26:23.818Z,9.50
2019-06-26T15:28:52.428Z,9.20
2019-06-26T15:31:20.973Z,8.77
2019-06-26T15:33:49.533Z,8.20
2019-06-26T15:36:18.142Z,8.33
2019-06-26T15:38:46.714Z,10.30
2019-06-26T15:41:15.410Z,8.73
2019-06-26T15:43:44.072Z,8.70
2019-06-26T15:46:12.705Z,8.63
2019-06-26T15:48:41.379Z,9.13
2019-06-26T15:51:10.102Z,9.80
2019-06-26T15:53:39.711Z,9.03
2019-06-26T15:56:08.305Z,8.93
2019-06-26T15:58:36.992Z,8.93
2019-06-26T16:01:05.897Z,8.90
2019-06-26T16:03:34.493Z,9.87
2019-06-26T16:06:03.189Z,8.40
2019-06-26T16:08:31.867Z,8.00
2019-06-26T16:11:00.529Z,8.33
2019-06-26T16:13:29.666Z,8.00
2019-06-26T16:15:58.278Z,7.90
2019-06-26T16:18:34.269Z,7.77
2019-06-26T16:21:03.277Z,7.90
2019-06-26T16:23:31.917Z,8.20
2019-06-26T16:26:00.640Z,7.63
2019-06-26T16:28:29.320Z,7.33
2019-06-26T16:30:58.005Z,8.03
2019-06-26T16:33:26.784Z,8.53
2019-06-26T16:35:55.396Z,8.10
2019-06-26T16:38:24.134Z,8.90
2019-06-26T16:40:52.750Z,8.37
2019-06-26T16:43:21.962Z,8.97
2019-06-26T16:45:51.279Z,7.23
2019-06-26T16:48:21.046Z,7.97
2019-06-26T16:50:49.738Z,8.40
2019-06-26T16:53:18.556Z,8.30
2019-06-26T16:55:47.410Z,7.90
2019-06-26T16:58:16.066Z,8.50
2019-06-26T17:00:44.725Z,9.03
2019-06-26T17:03:13.504Z,7.67
2019-06-26T17:05:42.184Z,10.93
2019-06-26T17:08:10.963Z,8.20
2019-06-26T17:10:39.847Z,7.90
2019-06-26T17:13:08.514Z,8.50
2019-06-26T17:15:37.178Z,7.40
2019-06-26T17:18:06.075Z,7.03
2019-06-26T17:20:34.966Z,8.43
2019-06-26T17:23:05.973Z,9.40
2019-06-26T17:25:34.040Z,7.03
2019-06-26T17:28:02.856Z,7.10
2019-06-26T17:30:31.631Z,8.00
2019-06-26T17:33:00.258Z,7.40
2019-06-26T17:35:29.017Z,7.27
2019-06-26T17:37:57.809Z,7.90
2019-06-26T17:40:26.603Z,8.23
2019-06-26T17:43:11.073Z,8.47
2019-06-26T17:45:25.775Z,9.43
2019-06-26T17:47:54.537Z,7.97
2019-06-26T17:50:23.368Z,7.77
2019-06-26T17:52:52.097Z,8.93
2019-06-26T17:55:20.669Z,8.10
2019-06-26T17:57:49.558Z,7.47
2019-06-26T18:00:21.293Z,8.50
2019-06-26T18:02:49.884Z,8.10
2019-06-26T18:05:18.574Z,7.50
2019-06-26T18:07:47.184Z,8.60
2019-06-26T18:10:15.917Z,8.90
2019-06-26T18:12:44.533Z,9.73
2019-06-26T18:15:14.084Z,8.03
2019-06-26T18:17:42.776Z,7.27
2019-06-26T18:20:11.580Z,8.33
2019-06-26T18:22:40.137Z,9.20
2019-06-26T18:25:08.980Z,8.07
2019-06-26T18:27:37.545Z,8.20
2019-06-26T18:30:10.123Z,8.43
2019-06-26T18:32:38.896Z,9.13
2019-06-26T18:35:08.640Z,8.33
2019-06-26T18:37:37.202Z,8.40
2019-06-26T18:40:07.532Z,8.07
2019-06-26T18:42:39.259Z,8.77
2019-06-26T18:45:08.607Z,8.43
2019-06-26T18:47:37.440Z,8.10
2019-06-26T18:50:08.348Z,8.27
2019-06-26T18:52:36.966Z,8.73
2019-06-26T18:55:07.230Z,10.00
2019-06-26T18:57:35.861Z,8.23
2019-06-26T19:00:06.388Z,9.60
2019-06-26T19:02:35.051Z,8.97
2019-06-26T19:05:05.591Z,8.97
2019-06-26T19:07:34.215Z,8.43
2019-06-26T19:10:02.857Z,8.60
2019-06-26T19:12:31.433Z,8.03
2019-06-26T19:15:00.078Z,9.00
2019-06-26T19:17:35.331Z,10.00
2019-06-26T19:20:07.073Z,10.00
2019-06-26T19:22:35.698Z,10.97
2019-06-26T19:25:06.529Z,9.43
2019-06-26T19:27:35.189Z,9.67
2019-06-26T19:30:08.106Z,8.87
2019-06-26T19:32:37.621Z,9.27
2019-06-26T19:35:18.719Z,8.50
2019-06-26T19:37:37.918Z,8.13
2019-06-26T19:40:08.710Z,9.60
2019-06-26T19:42:37.393Z,9.37
2019-06-26T19:45:08.020Z,9.73
2019-06-26T19:47:37.118Z,10.37
2019-06-26T19:50:07.768Z,9.27
2019-06-26T19:52:36.652Z,9.20
2019-06-26T19:55:08.043Z,9.20
2019-06-26T19:57:36.722Z,10.07
2019-06-26T20:00:11.979Z,9.20
2019-06-26T20:02:40.687Z,10.43
2019-06-26T20:05:09.651Z,9.47
2019-06-26T20:07:38.552Z,9.67
2019-06-26T20:10:08.898Z,10.23
2019-06-26T20:12:37.732Z,9.43
2019-06-26T20:15:07.330Z,9.80
2019-06-26T20:17:35.939Z,10.63
2019-06-26T20:20:06.818Z,9.90
2019-06-26T20:22:35.588Z,10.07
2019-06-26T20:25:08.465Z,8.53
2019-06-26T20:27:37.355Z,10.87
2019-06-26T20:30:09.573Z,9.20
2019-06-26T20:32:37.227Z,10.27
2019-06-26T20:35:06.928Z,10.63
2019-06-26T20:37:35.639Z,9.57
2019-06-26T20:40:06.185Z,10.83
2019-06-26T20:42:35.081Z,10.43
2019-06-26T20:45:05.362Z,10.27
2019-06-26T20:47:33.936Z,9.73
2019-06-26T20:50:02.677Z,10.77
2019-06-26T20:52:31.470Z,11.57
2019-06-26T20:55:02.646Z,11.27
2019-06-26T20:57:30.921Z,10.30
2019-06-26T20:59:59.577Z,12.57
2019-06-26T21:02:28.310Z,11.63
2019-06-26T21:04:57.141Z,11.37
2019-06-26T21:07:25.705Z,11.10
2019-06-26T21:09:54.398Z,9.57
2019-06-26T21:12:22.978Z,11.70
2019-06-26T21:14:51.616Z,11.17
2019-06-26T21:17:20.171Z,11.50
2019-06-26T21:19:48.750Z,10.80
2019-06-26T21:22:17.309Z,10.63
2019-06-26T21:24:45.948Z,12.00
2019-06-26T21:27:14.722Z,10.87
2019-06-26T21:29:43.312Z,10.90
2019-06-26T21:32:12.040Z,11.73
2019-06-26T21:34:40.638Z,11.00
2019-06-26T21:37:09.185Z,11.00
2019-06-26T21:39:37.773Z,11.37
2019-06-26T21:42:06.313Z,10.80
2019-06-26T21:44:34.817Z,11.60
2019-06-26T21:47:03.361Z,10.87
2019-06-26T21:49:31.910Z,11.10
2019-06-26T21:52:00.544Z,11.17
2019-06-26T21:54:29.026Z,11.40
2019-06-26T21:56:57.592Z,10.57
2019-06-26T21:59:26.142Z,11.73
2019-06-26T22:01:54.809Z,12.03
2019-06-26T22:04:24.034Z,11.30
2019-06-26T22:06:52.824Z,12.23
2019-06-26T22:09:21.477Z,11.90
2019-06-26T22:11:50.074Z,12.33
2019-06-26T22:14:18.654Z,11.70
2019-06-26T22:16:47.314Z,11.90
2019-06-26T22:19:15.860Z,12.27
2019-06-26T22:21:44.571Z,11.40
2019-06-26T22:24:13.130Z,11.93
2019-06-26T22:26:42.533Z,12.00
2019-06-26T22:29:11.115Z,11.97
2019-06-26T22:31:41.287Z,11.90
2019-06-26T22:34:09.876Z,12.23
2019-06-26T22:36:38.723Z,11.77
2019-06-26T22:39:07.450Z,11.80
2019-06-26T22:41:36.081Z,12.30
2019-06-26T22:44:04.751Z,11.00
2019-06-26T22:46:33.300Z,11.10
2019-06-26T22:49:01.951Z,12.93
2019-06-26T22:51:30.650Z,12.20
2019-06-26T22:53:59.278Z,10.97
2019-06-26T22:56:27.896Z,11.80
2019-06-26T22:58:56.496Z,12.33
2019-06-26T23:01:25.116Z,12.00
2019-06-26T23:03:53.782Z,12.10
2019-06-26T23:06:22.425Z,13.53
2019-06-26T23:08:51.071Z,11.83
2019-06-26T23:11:19.620Z,11.80
2019-06-26T23:13:48.138Z,11.67
2019-06-26T23:16:16.825Z,13.10
2019-06-26T23:18:45.403Z,11.70
2019-06-26T23:21:14.029Z,11.80
2019-06-26T23:23:42.594Z,12.20
2019-06-26T23:26:23.373Z,12.27
2019-06-26T23:28:41.398Z,13.27
2019-06-26T23:31:10.044Z,12.20
2019-06-26T23:33:38.696Z,11.73
2019-06-26T23:36:07.433Z,12.23
2019-06-26T23:38:36.085Z,11.00
2019-06-26T23:41:04.715Z,13.63
2019-06-26T23:43:33.300Z,12.43
2019-06-26T23:46:01.876Z,13.17
2019-06-26T23:48:30.460Z,12.17
2019-06-26T23:50:59.038Z,12.60
2019-06-26T23:53:27.624Z,11.73
2019-06-26T23:55:57.056Z,12.50
2019-06-26T23:58:25.621Z,13.50
